Skiros, Greece
Current Conditions -  °F | °C
As of 9:50 PM on Monday 20 Oct 2014 (Local Time) from LGSY Reporting Station
Few Clouds Few Clouds  
Wind Chill: 12°   Ceiling: Unl
Heat Index: 12°   Visibility: 6mi
Dew Point:   Wind: 2mph
Humidity: 82%   Direction: NA
Pressure: 30.03"   Gusts: NA
Location:  38.9°N, 24.56°E
Report Text: LGSY 201850Z VRB02KT 9999 FEW025 12/09 Q1017 RMK FEW180 BLU
Loading
Personal Weather Stations






























Interactive Weather Map
Tropical Storm Tracking
New forecast layout! Learn more

10-Day Weather Forecast

Advertisements
Track Severe Weather on mobile